sensor_id;sensor_type;location;lat;lon;timestamp;pressure;altitude;pressure_sealevel;temperature;humidity
9277;BME280;4676;42.678;23.244;2023-06-14T00:01:48;93777.28;;;16.13;100.00
9277;BME280;4676;42.678;23.244;2023-06-14T00:04:14;93771.47;;;16.11;100.00
9277;BME280;4676;42.678;23.244;2023-06-14T00:06:42;93764.00;;;16.08;100.00
9277;BME280;4676;42.678;23.244;2023-06-14T00:09:10;93759.59;;;16.10;100.00
9277;BME280;4676;42.678;23.244;2023-06-14T00:11:40;93761.44;;;16.08;100.00
9277;BME280;4676;42.678;23.244;2023-06-14T00:14:07;93745.06;;;15.97;100.00
9277;BME280;4676;42.678;23.244;2023-06-14T00:16:35;93752.44;;;16.02;100.00
9277;BME280;4676;42.678;23.244;2023-06-14T00:19:02;93757.94;;;16.09;100.00
9277;BME280;4676;42.678;23.244;2023-06-14T00:21:29;93756.63;;;16.16;100.00
9277;BME280;4676;42.678;23.244;2023-06-14T00:24:02;93754.88;;;16.16;100.00
9277;BME280;4676;42.678;23.244;2023-06-14T00:26:31;93755.31;;;16.10;100.00
9277;BME280;4676;42.678;23.244;2023-06-14T00:28:58;93755.38;;;16.09;100.00
9277;BME280;4676;42.678;23.244;2023-06-14T00:31:25;93748.66;;;16.08;100.00
9277;BME280;4676;42.678;23.244;2023-06-14T00:33:53;93752.00;;;16.08;100.00
9277;BME280;4676;42.678;23.244;2023-06-14T00:36:20;93747.22;;;16.16;100.00
9277;BME280;4676;42.678;23.244;2023-06-14T00:38:46;93748.13;;;16.15;100.00
9277;BME280;4676;42.678;23.244;2023-06-14T00:41:25;93742.63;;;16.09;100.00
9277;BME280;4676;42.678;23.244;2023-06-14T00:43:52;93739.66;;;16.15;100.00
9277;BME280;4676;42.678;23.244;2023-06-14T00:46:22;93744.16;;;16.11;100.00
9277;BME280;4676;42.678;23.244;2023-06-14T00:48:48;93735.47;;;16.14;100.00
9277;BME280;4676;42.678;23.244;2023-06-14T00:51:17;93748.03;;;16.17;100.00
9277;BME280;4676;42.678;23.244;2023-06-14T00:53:44;93737.09;;;16.15;100.00
9277;BME280;4676;42.678;23.244;2023-06-14T00:56:12;93736.28;;;16.14;100.00
9277;BME280;4676;42.678;23.244;2023-06-14T00:58:43;93738.22;;;16.11;100.00
9277;BME280;4676;42.678;23.244;2023-06-14T01:01:10;93733.13;;;16.11;100.00
9277;BME280;4676;42.678;23.244;2023-06-14T01:03:42;93742.22;;;16.15;100.00
9277;BME280;4676;42.678;23.244;2023-06-14T01:06:18;93731.38;;;16.11;100.00
9277;BME280;4676;42.678;23.244;2023-06-14T01:09:04;93731.47;;;16.10;100.00
9277;BME280;4676;42.678;23.244;2023-06-14T01:11:38;93739.06;;;16.11;100.00
9277;BME280;4676;42.678;23.244;2023-06-14T01:14:11;93732.09;;;16.13;100.00
9277;BME280;4676;42.678;23.244;2023-06-14T01:16:39;93724.00;;;16.07;100.00
9277;BME280;4676;42.678;23.244;2023-06-14T01:19:09;93727.06;;;16.12;100.00
9277;BME280;4676;42.678;23.244;2023-06-14T01:21:43;93727.88;;;16.12;100.00
9277;BME280;4676;42.678;23.244;2023-06-14T01:24:11;93737.91;;;16.15;100.00
9277;BME280;4676;42.678;23.244;2023-06-14T01:26:39;93724.41;;;16.13;100.00
9277;BME280;4676;42.678;23.244;2023-06-14T01:29:11;93730.22;;;16.15;100.00
9277;BME280;4676;42.678;23.244;2023-06-14T01:31:45;93725.31;;;16.12;100.00
9277;BME280;4676;42.678;23.244;2023-06-14T01:34:12;93726.28;;;16.11;100.00
9277;BME280;4676;42.678;23.244;2023-06-14T01:36:42;93720.34;;;16.11;100.00
9277;BME280;4676;42.678;23.244;2023-06-14T01:39:11;93726.34;;;16.10;100.00
9277;BME280;4676;42.678;23.244;2023-06-14T01:41:49;93728.72;;;16.13;100.00
9277;BME280;4676;42.678;23.244;2023-06-14T01:44:19;93728.91;;;16.22;100.00
9277;BME280;4676;42.678;23.244;2023-06-14T01:46:47;93734.00;;;16.35;100.00
9277;BME280;4676;42.678;23.244;2023-06-14T01:49:14;93718.88;;;16.19;100.00
9277;BME280;4676;42.678;23.244;2023-06-14T01:51:40;93729.09;;;16.19;100.00
9277;BME280;4676;42.678;23.244;2023-06-14T01:54:12;93733.91;;;16.24;100.00
9277;BME280;4676;42.678;23.244;2023-06-14T01:56:40;93740.78;;;16.23;100.00
9277;BME280;4676;42.678;23.244;2023-06-14T01:59:07;93753.25;;;16.28;100.00
9277;BME280;4676;42.678;23.244;2023-06-14T02:01:34;93750.56;;;16.29;100.00
9277;BME280;4676;42.678;23.244;2023-06-14T02:04:02;93756.63;;;16.28;100.00
9277;BME280;4676;42.678;23.244;2023-06-14T02:06:28;93759.19;;;16.16;100.00
9277;BME280;4676;42.678;23.244;2023-06-14T02:08:55;93759.31;;;16.14;100.00
9277;BME280;4676;42.678;23.244;2023-06-14T02:11:26;93770.66;;;16.10;100.00
9277;BME280;4676;42.678;23.244;2023-06-14T02:13:52;93770.94;;;16.06;100.00
9277;BME280;4676;42.678;23.244;2023-06-14T02:16:20;93773.41;;;16.07;100.00
9277;BME280;4676;42.678;23.244;2023-06-14T02:18:50;93779.13;;;16.11;100.00
9277;BME280;4676;42.678;23.244;2023-06-14T02:21:17;93780.47;;;16.04;100.00
9277;BME280;4676;42.678;23.244;2023-06-14T02:23:43;93779.94;;;15.98;100.00
9277;BME280;4676;42.678;23.244;2023-06-14T02:26:10;93780.97;;;15.96;100.00
9277;BME280;4676;42.678;23.244;2023-06-14T02:28:38;93781.38;;;15.90;100.00
9277;BME280;4676;42.678;23.244;2023-06-14T02:31:05;93778.06;;;15.88;100.00
9277;BME280;4676;42.678;23.244;2023-06-14T02:33:31;93778.91;;;15.88;100.00
9277;BME280;4676;42.678;23.244;2023-06-14T02:35:58;93775.84;;;15.96;100.00
9277;BME280;4676;42.678;23.244;2023-06-14T02:38:27;93771.75;;;15.93;100.00
9277;BME280;4676;42.678;23.244;2023-06-14T02:40:54;93769.91;;;15.95;100.00
9277;BME280;4676;42.678;23.244;2023-06-14T02:43:23;93776.25;;;15.90;100.00
9277;BME280;4676;42.678;23.244;2023-06-14T02:45:53;93773.38;;;15.82;100.00
9277;BME280;4676;42.678;23.244;2023-06-14T02:48:19;93769.91;;;15.83;100.00
9277;BME280;4676;42.678;23.244;2023-06-14T02:50:46;93765.91;;;15.79;100.00
9277;BME280;4676;42.678;23.244;2023-06-14T02:53:13;93769.47;;;15.76;100.00
9277;BME280;4676;42.678;23.244;2023-06-14T02:55:43;93764.19;;;15.79;100.00
9277;BME280;4676;42.678;23.244;2023-06-14T02:58:09;93771.84;;;15.79;100.00
9277;BME280;4676;42.678;23.244;2023-06-14T03:00:36;93768.66;;;15.76;100.00
9277;BME280;4676;42.678;23.244;2023-06-14T03:03:08;93771.72;;;15.81;100.00
9277;BME280;4676;42.678;23.244;2023-06-14T03:05:40;93775.09;;;15.81;100.00
9277;BME280;4676;42.678;23.244;2023-06-14T03:08:13;93772.56;;;15.81;100.00
9277;BME280;4676;42.678;23.244;2023-06-14T03:10:47;93775.81;;;15.83;100.00
9277;BME280;4676;42.678;23.244;2023-06-14T03:13:17;93756.06;;;15.73;100.00
9277;BME280;4676;42.678;23.244;2023-06-14T03:15:46;93783.47;;;15.83;100.00
9277;BME280;4676;42.678;23.244;2023-06-14T03:18:16;93777.25;;;15.87;100.00
9277;BME280;4676;42.678;23.244;2023-06-14T03:20:44;93783.81;;;15.91;100.00
9277;BME280;4676;42.678;23.244;2023-06-14T03:23:12;93788.31;;;15.88;100.00
9277;BME280;4676;42.678;23.244;2023-06-14T03:25:38;93787.81;;;15.83;100.00
9277;BME280;4676;42.678;23.244;2023-06-14T03:28:07;93781.13;;;15.80;100.00
9277;BME280;4676;42.678;23.244;2023-06-14T03:30:36;93793.69;;;15.83;100.00
9277;BME280;4676;42.678;23.244;2023-06-14T03:33:03;93793.09;;;15.80;100.00
9277;BME280;4676;42.678;23.244;2023-06-14T03:35:31;93796.78;;;15.88;100.00
9277;BME280;4676;42.678;23.244;2023-06-14T03:37:58;93795.06;;;15.89;100.00
9277;BME280;4676;42.678;23.244;2023-06-14T03:40:29;93794.44;;;15.85;100.00
9277;BME280;4676;42.678;23.244;2023-06-14T03:42:56;93794.63;;;15.82;100.00
9277;BME280;4676;42.678;23.244;2023-06-14T03:45:23;93788.59;;;15.83;100.00
9277;BME280;4676;42.678;23.244;2023-06-14T03:47:51;93792.38;;;15.90;100.00
9277;BME280;4676;42.678;23.244;2023-06-14T03:50:18;93798.94;;;15.94;100.00
9277;BME280;4676;42.678;23.244;2023-06-14T03:52:48;93791.28;;;15.94;100.00
9277;BME280;4676;42.678;23.244;2023-06-14T03:55:15;93796.28;;;15.96;100.00
9277;BME280;4676;42.678;23.244;2023-06-14T03:57:45;93790.97;;;15.99;100.00
9277;BME280;4676;42.678;23.244;2023-06-14T04:00:14;93799.78;;;16.08;100.00
9277;BME280;4676;42.678;23.244;2023-06-14T04:02:42;93800.69;;;16.19;100.00
9277;BME280;4676;42.678;23.244;2023-06-14T04:05:12;93811.03;;;16.18;100.00
9277;BME280;4676;42.678;23.244;2023-06-14T04:07:44;93802.84;;;16.13;100.00
9277;BME280;4676;42.678;23.244;2023-06-14T04:10:15;93804.00;;;16.21;100.00
9277;BME280;4676;42.678;23.244;2023-06-14T04:12:42;93803.66;;;16.26;100.00
9277;BME280;4676;42.678;23.244;2023-06-14T04:15:11;93793.16;;;16.18;100.00
9277;BME280;4676;42.678;23.244;2023-06-14T04:17:41;93766.66;;;16.06;100.00
9277;BME280;4676;42.678;23.244;2023-06-14T04:20:08;93798.16;;;16.32;100.00
9277;BME280;4676;42.678;23.244;2023-06-14T04:22:36;93800.50;;;16.35;100.00
9277;BME280;4676;42.678;23.244;2023-06-14T04:25:03;93799.19;;;16.42;100.00
9277;BME280;4676;42.678;23.244;2023-06-14T04:27:32;93805.31;;;16.52;100.00
9277;BME280;4676;42.678;23.244;2023-06-14T04:30:01;93806.13;;;16.53;100.00
9277;BME280;4676;42.678;23.244;2023-06-14T04:32:29;93805.09;;;16.55;100.00
9277;BME280;4676;42.678;23.244;2023-06-14T04:35:01;93770.22;;;16.41;100.00
9277;BME280;4676;42.678;23.244;2023-06-14T04:37:33;93808.88;;;16.75;100.00
9277;BME280;4676;42.678;23.244;2023-06-14T04:40:00;93809.00;;;16.73;100.00
9277;BME280;4676;42.678;23.244;2023-06-14T04:42:30;93809.50;;;16.78;100.00
9277;BME280;4676;42.678;23.244;2023-06-14T04:44:59;93805.41;;;16.88;100.00
9277;BME280;4676;42.678;23.244;2023-06-14T04:47:26;93809.66;;;17.01;100.00
9277;BME280;4676;42.678;23.244;2023-06-14T04:49:56;93812.69;;;17.18;100.00
9277;BME280;4676;42.678;23.244;2023-06-14T04:52:23;93826.59;;;17.27;100.00
9277;BME280;4676;42.678;23.244;2023-06-14T04:54:51;93827.75;;;17.23;100.00
9277;BME280;4676;42.678;23.244;2023-06-14T04:57:19;93812.59;;;17.07;100.00
9277;BME280;4676;42.678;23.244;2023-06-14T04:59:47;93831.53;;;17.17;100.00
9277;BME280;4676;42.678;23.244;2023-06-14T05:02:15;93836.66;;;17.17;100.00
9277;BME280;4676;42.678;23.244;2023-06-14T05:04:45;93838.06;;;17.21;100.00
9277;BME280;4676;42.678;23.244;2023-06-14T05:07:12;93836.72;;;17.28;100.00
9277;BME280;4676;42.678;23.244;2023-06-14T05:09:44;93841.09;;;17.39;100.00
9277;BME280;4676;42.678;23.244;2023-06-14T05:12:11;93847.63;;;17.56;100.00
9277;BME280;4676;42.678;23.244;2023-06-14T05:14:37;93847.91;;;17.64;100.00
9277;BME280;4676;42.678;23.244;2023-06-14T05:17:05;93796.56;;;17.53;100.00
9277;BME280;4676;42.678;23.244;2023-06-14T05:19:33;93842.13;;;17.73;100.00
9277;BME280;4676;42.678;23.244;2023-06-14T05:22:04;93844.50;;;17.63;100.00
9277;BME280;4676;42.678;23.244;2023-06-14T05:24:30;93870.59;;;17.81;100.00
9277;BME280;4676;42.678;23.244;2023-06-14T05:26:57;93869.34;;;17.86;100.00
9277;BME280;4676;42.678;23.244;2023-06-14T05:29:24;93871.97;;;17.98;100.00
9277;BME280;4676;42.678;23.244;2023-06-14T05:31:51;93874.34;;;18.12;100.00
9277;BME280;4676;42.678;23.244;2023-06-14T05:34:17;93881.47;;;18.19;100.00
9277;BME280;4676;42.678;23.244;2023-06-14T05:36:46;93885.78;;;18.19;100.00
9277;BME280;4676;42.678;23.244;2023-06-14T05:39:12;93888.47;;;18.17;100.00
9277;BME280;4676;42.678;23.244;2023-06-14T05:41:40;93881.31;;;18.10;100.00
9277;BME280;4676;42.678;23.244;2023-06-14T05:44:09;93899.34;;;17.97;100.00
9277;BME280;4676;42.678;23.244;2023-06-14T05:46:39;93888.75;;;17.78;100.00
9277;BME280;4676;42.678;23.244;2023-06-14T05:49:06;93890.09;;;17.71;100.00
9277;BME280;4676;42.678;23.244;2023-06-14T05:51:35;93889.78;;;17.75;100.00
9277;BME280;4676;42.678;23.244;2023-06-14T05:54:03;93897.72;;;17.72;100.00
9277;BME280;4676;42.678;23.244;2023-06-14T05:56:29;93897.09;;;17.69;100.00
9277;BME280;4676;42.678;23.244;2023-06-14T05:58:56;93894.78;;;17.77;100.00
9277;BME280;4676;42.678;23.244;2023-06-14T06:01:23;93899.75;;;17.67;100.00
9277;BME280;4676;42.678;23.244;2023-06-14T06:03:50;93904.00;;;17.56;100.00
9277;BME280;4676;42.678;23.244;2023-06-14T06:06:17;93904.31;;;17.51;100.00
9277;BME280;4676;42.678;23.244;2023-06-14T06:08:46;93901.13;;;17.47;100.00
9277;BME280;4676;42.678;23.244;2023-06-14T06:11:17;93894.59;;;17.43;100.00
9277;BME280;4676;42.678;23.244;2023-06-14T06:13:44;93901.84;;;17.49;100.00
9277;BME280;4676;42.678;23.244;2023-06-14T06:16:11;93903.09;;;17.44;100.00
9277;BME280;4676;42.678;23.244;2023-06-14T06:18:40;93901.34;;;17.44;100.00
9277;BME280;4676;42.678;23.244;2023-06-14T06:21:09;93893.16;;;17.39;100.00
9277;BME280;4676;42.678;23.244;2023-06-14T06:23:35;93899.00;;;17.41;100.00
9277;BME280;4676;42.678;23.244;2023-06-14T06:26:02;93898.97;;;17.54;100.00
9277;BME280;4676;42.678;23.244;2023-06-14T06:28:32;93903.25;;;17.66;100.00
9277;BME280;4676;42.678;23.244;2023-06-14T06:30:58;93908.28;;;17.68;100.00
9277;BME280;4676;42.678;23.244;2023-06-14T06:33:25;93903.06;;;17.69;100.00
9277;BME280;4676;42.678;23.244;2023-06-14T06:35:52;93904.63;;;17.83;100.00
9277;BME280;4676;42.678;23.244;2023-06-14T06:38:19;93901.84;;;17.86;100.00
9277;BME280;4676;42.678;23.244;2023-06-14T06:40:48;93904.28;;;17.87;100.00
9277;BME280;4676;42.678;23.244;2023-06-14T06:43:14;93896.78;;;17.97;100.00
9277;BME280;4676;42.678;23.244;2023-06-14T06:45:43;93901.75;;;18.11;100.00
9277;BME280;4676;42.678;23.244;2023-06-14T06:48:10;93893.97;;;18.24;100.00
9277;BME280;4676;42.678;23.244;2023-06-14T06:50:37;93895.28;;;18.40;100.00
9277;BME280;4676;42.678;23.244;2023-06-14T06:53:04;93901.69;;;18.70;100.00
9277;BME280;4676;42.678;23.244;2023-06-14T06:55:32;93902.19;;;19.08;100.00
9277;BME280;4676;42.678;23.244;2023-06-14T06:57:59;93909.09;;;19.19;100.00
9277;BME280;4676;42.678;23.244;2023-06-14T07:00:26;93908.84;;;19.33;100.00
9277;BME280;4676;42.678;23.244;2023-06-14T07:02:54;93905.81;;;19.61;100.00
9277;BME280;4676;42.678;23.244;2023-06-14T07:05:24;93913.31;;;19.96;100.00
9277;BME280;4676;42.678;23.244;2023-06-14T07:07:51;93907.09;;;20.10;100.00
9277;BME280;4676;42.678;23.244;2023-06-14T07:10:19;93909.63;;;20.21;100.00
9277;BME280;4676;42.678;23.244;2023-06-14T07:12:45;93909.31;;;20.46;100.00
9277;BME280;4676;42.678;23.244;2023-06-14T07:15:12;93908.75;;;20.63;100.00
9277;BME280;4676;42.678;23.244;2023-06-14T07:17:39;93906.94;;;20.54;100.00
9277;BME280;4676;42.678;23.244;2023-06-14T07:20:11;93909.50;;;20.33;100.00
9277;BME280;4676;42.678;23.244;2023-06-14T07:22:39;93911.13;;;20.23;100.00
9277;BME280;4676;42.678;23.244;2023-06-14T07:25:08;93915.84;;;20.18;100.00
9277;BME280;4676;42.678;23.244;2023-06-14T07:27:35;93907.66;;;20.13;100.00
9277;BME280;4676;42.678;23.244;2023-06-14T07:30:02;93907.09;;;20.10;100.00
9277;BME280;4676;42.678;23.244;2023-06-14T07:32:28;93906.50;;;20.06;100.00
9277;BME280;4676;42.678;23.244;2023-06-14T07:34:55;93908.69;;;20.22;100.00
9277;BME280;4676;42.678;23.244;2023-06-14T07:37:23;93899.69;;;20.27;100.00
9277;BME280;4676;42.678;23.244;2023-06-14T07:39:50;93903.97;;;20.38;100.00
9277;BME280;4676;42.678;23.244;2023-06-14T07:42:16;93904.16;;;20.46;100.00
9277;BME280;4676;42.678;23.244;2023-06-14T07:44:43;93902.59;;;20.55;100.00
9277;BME280;4676;42.678;23.244;2023-06-14T07:47:10;93905.66;;;20.69;100.00
9277;BME280;4676;42.678;23.244;2023-06-14T07:49:36;93913.31;;;20.80;100.00
9277;BME280;4676;42.678;23.244;2023-06-14T07:52:04;93918.53;;;20.90;100.00
9277;BME280;4676;42.678;23.244;2023-06-14T07:54:35;93919.91;;;20.94;100.00
9277;BME280;4676;42.678;23.244;2023-06-14T07:57:02;93918.72;;;20.98;100.00
9277;BME280;4676;42.678;23.244;2023-06-14T07:59:29;93918.84;;;20.97;100.00
9277;BME280;4676;42.678;23.244;2023-06-14T08:01:56;93932.53;;;20.97;100.00
9277;BME280;4676;42.678;23.244;2023-06-14T08:04:23;93926.59;;;20.97;100.00
9277;BME280;4676;42.678;23.244;2023-06-14T08:06:50;93942.69;;;20.89;100.00
9277;BME280;4676;42.678;23.244;2023-06-14T08:09:17;93943.56;;;20.78;100.00
9277;BME280;4676;42.678;23.244;2023-06-14T08:11:45;93947.69;;;20.70;100.00
9277;BME280;4676;42.678;23.244;2023-06-14T08:14:12;93951.03;;;20.81;100.00
9277;BME280;4676;42.678;23.244;2023-06-14T08:16:38;93951.28;;;20.78;100.00
9277;BME280;4676;42.678;23.244;2023-06-14T08:19:05;93950.97;;;20.72;100.00
9277;BME280;4676;42.678;23.244;2023-06-14T08:21:32;93948.41;;;20.72;100.00
9277;BME280;4676;42.678;23.244;2023-06-14T08:26:40;93960.31;;;21.35;100.00
9277;BME280;4676;42.678;23.244;2023-06-14T08:29:08;93957.44;;;21.28;100.00
9277;BME280;4676;42.678;23.244;2023-06-14T08:31:35;93954.69;;;21.51;100.00
9277;BME280;4676;42.678;23.244;2023-06-14T08:34:02;93955.44;;;21.72;100.00
9277;BME280;4676;42.678;23.244;2023-06-14T08:36:29;93957.09;;;21.82;100.00
9277;BME280;4676;42.678;23.244;2023-06-14T08:38:55;93953.41;;;21.75;100.00
9277;BME280;4676;42.678;23.244;2023-06-14T08:41:22;93959.00;;;21.80;100.00
9277;BME280;4676;42.678;23.244;2023-06-14T08:43:50;93955.44;;;22.02;100.00
9277;BME280;4676;42.678;23.244;2023-06-14T08:46:18;93955.88;;;21.86;100.00
9277;BME280;4676;42.678;23.244;2023-06-14T08:48:49;93955.59;;;21.70;100.00
9277;BME280;4676;42.678;23.244;2023-06-14T08:51:18;93936.13;;;21.57;100.00
9277;BME280;4676;42.678;23.244;2023-06-14T08:53:51;93948.81;;;21.79;100.00
9277;BME280;4676;42.678;23.244;2023-06-14T08:56:19;93945.13;;;21.81;100.00
9277;BME280;4676;42.678;23.244;2023-06-14T08:58:47;93941.97;;;21.99;100.00
9277;BME280;4676;42.678;23.244;2023-06-14T09:01:16;93938.88;;;22.43;100.00
9277;BME280;4676;42.678;23.244;2023-06-14T09:03:44;93941.06;;;22.76;100.00
9277;BME280;4676;42.678;23.244;2023-06-14T09:06:11;93936.13;;;23.02;100.00
9277;BME280;4676;42.678;23.244;2023-06-14T09:08:41;93939.25;;;23.06;100.00
9277;BME280;4676;42.678;23.244;2023-06-14T09:11:10;93935.41;;;23.19;100.00
9277;BME280;4676;42.678;23.244;2023-06-14T09:13:37;93932.19;;;23.08;100.00
9277;BME280;4676;42.678;23.244;2023-06-14T09:16:05;93932.06;;;23.00;100.00
9277;BME280;4676;42.678;23.244;2023-06-14T09:18:35;93931.66;;;22.95;100.00
9277;BME280;4676;42.678;23.244;2023-06-14T09:21:05;93920.41;;;22.86;100.00
9277;BME280;4676;42.678;23.244;2023-06-14T09:23:33;93925.13;;;22.52;100.00
9277;BME280;4676;42.678;23.244;2023-06-14T09:26:07;93921.47;;;22.26;100.00
9277;BME280;4676;42.678;23.244;2023-06-14T09:28:34;93927.31;;;22.09;100.00
9277;BME280;4676;42.678;23.244;2023-06-14T09:31:00;93924.84;;;22.17;100.00
9277;BME280;4676;42.678;23.244;2023-06-14T09:33:27;93930.16;;;22.15;100.00
9277;BME280;4676;42.678;23.244;2023-06-14T09:35:54;93928.25;;;21.98;100.00
9277;BME280;4676;42.678;23.244;2023-06-14T09:38:24;93937.16;;;21.84;100.00
9277;BME280;4676;42.678;23.244;2023-06-14T09:40:51;93931.25;;;21.63;100.00
9277;BME280;4676;42.678;23.244;2023-06-14T09:43:18;93930.59;;;21.71;100.00
9277;BME280;4676;42.678;23.244;2023-06-14T09:45:47;93922.72;;;21.72;100.00
9277;BME280;4676;42.678;23.244;2023-06-14T09:48:14;93936.56;;;21.71;100.00
9277;BME280;4676;42.678;23.244;2023-06-14T09:50:44;93922.22;;;21.48;100.00
9277;BME280;4676;42.678;23.244;2023-06-14T09:53:12;93921.09;;;21.31;100.00
9277;BME280;4676;42.678;23.244;2023-06-14T09:55:41;93913.09;;;21.34;100.00
9277;BME280;4676;42.678;23.244;2023-06-14T09:58:10;93912.16;;;21.35;100.00
9277;BME280;4676;42.678;23.244;2023-06-14T10:00:39;93911.84;;;21.29;100.00
9277;BME280;4676;42.678;23.244;2023-06-14T10:03:12;93915.13;;;21.31;100.00
9277;BME280;4676;42.678;23.244;2023-06-14T10:05:41;93915.06;;;21.52;100.00
9277;BME280;4676;42.678;23.244;2023-06-14T10:08:13;93859.78;;;21.35;100.00
9277;BME280;4676;42.678;23.244;2023-06-14T10:10:42;93901.25;;;21.72;100.00
9277;BME280;4676;42.678;23.244;2023-06-14T10:13:10;93908.59;;;21.76;100.00
9277;BME280;4676;42.678;23.244;2023-06-14T10:15:42;93902.50;;;21.77;100.00
9277;BME280;4676;42.678;23.244;2023-06-14T10:18:19;93898.56;;;21.83;100.00
9277;BME280;4676;42.678;23.244;2023-06-14T10:20:55;93880.16;;;22.07;100.00
9277;BME280;4676;42.678;23.244;2023-06-14T10:23:26;93882.75;;;22.16;100.00
9277;BME280;4676;42.678;23.244;2023-06-14T10:25:57;93888.47;;;22.20;100.00
9277;BME280;4676;42.678;23.244;2023-06-14T10:28:25;93886.69;;;22.11;100.00
9277;BME280;4676;42.678;23.244;2023-06-14T10:31:05;93881.53;;;22.01;100.00
9277;BME280;4676;42.678;23.244;2023-06-14T10:33:33;93862.09;;;21.97;100.00
9277;BME280;4676;42.678;23.244;2023-06-14T10:36:24;93877.31;;;22.29;100.00
9277;BME280;4676;42.678;23.244;2023-06-14T10:39:00;93878.13;;;22.58;100.00
9277;BME280;4676;42.678;23.244;2023-06-14T10:41:29;93868.69;;;22.76;100.00
9277;BME280;4676;42.678;23.244;2023-06-14T10:44:31;93876.28;;;22.87;100.00
9277;BME280;4676;42.678;23.244;2023-06-14T10:46:59;93872.88;;;22.97;100.00
9277;BME280;4676;42.678;23.244;2023-06-14T10:49:38;93872.19;;;23.04;100.00
9277;BME280;4676;42.678;23.244;2023-06-14T10:52:08;93858.69;;;23.10;100.00
9277;BME280;4676;42.678;23.244;2023-06-14T10:54:37;93871.81;;;23.36;100.00
9277;BME280;4676;42.678;23.244;2023-06-14T10:57:06;93865.34;;;23.40;100.00
9277;BME280;4676;42.678;23.244;2023-06-14T10:59:33;93862.47;;;23.53;100.00
9277;BME280;4676;42.678;23.244;2023-06-14T11:02:14;93857.69;;;23.75;100.00
9277;BME280;4676;42.678;23.244;2023-06-14T11:04:47;93859.97;;;23.88;100.00
9277;BME280;4676;42.678;23.244;2023-06-14T11:07:39;93860.97;;;23.77;100.00
9277;BME280;4676;42.678;23.244;2023-06-14T11:10:16;93856.31;;;23.81;100.00
9277;BME280;4676;42.678;23.244;2023-06-14T11:12:50;93844.66;;;23.95;100.00
9277;BME280;4676;42.678;23.244;2023-06-14T11:15:19;93843.75;;;24.04;99.55
9277;BME280;4676;42.678;23.244;2023-06-14T11:17:52;93843.19;;;24.10;100.00
9277;BME280;4676;42.678;23.244;2023-06-14T11:20:19;93845.00;;;24.00;98.55
9277;BME280;4676;42.678;23.244;2023-06-14T11:22:47;93841.25;;;23.94;94.32
9277;BME280;4676;42.678;23.244;2023-06-14T11:25:14;93847.22;;;23.95;99.46
9277;BME280;4676;42.678;23.244;2023-06-14T11:27:42;93845.97;;;23.99;100.00
9277;BME280;4676;42.678;23.244;2023-06-14T11:30:12;93842.88;;;23.95;99.63
9277;BME280;4676;42.678;23.244;2023-06-14T11:32:39;93837.84;;;24.11;100.00
9277;BME280;4676;42.678;23.244;2023-06-14T11:35:06;93830.00;;;24.21;100.00
9277;BME280;4676;42.678;23.244;2023-06-14T11:37:36;93850.78;;;24.47;86.85
9277;BME280;4676;42.678;23.244;2023-06-14T11:40:04;93844.13;;;24.44;87.58
9277;BME280;4676;42.678;23.244;2023-06-14T11:42:35;93839.31;;;24.49;91.64
9277;BME280;4676;42.678;23.244;2023-06-14T11:45:03;93835.97;;;24.57;94.93
9277;BME280;4676;42.678;23.244;2023-06-14T11:47:35;93836.19;;;24.46;91.82
9277;BME280;4676;42.678;23.244;2023-06-14T11:50:03;93811.13;;;24.11;88.49
9277;BME280;4676;42.678;23.244;2023-06-14T11:52:30;93829.47;;;24.00;92.33
9277;BME280;4676;42.678;23.244;2023-06-14T11:54:57;93820.31;;;23.87;100.00
9277;BME280;4676;42.678;23.244;2023-06-14T11:57:25;93824.81;;;24.03;95.30
9277;BME280;4676;42.678;23.244;2023-06-14T11:59:52;93816.16;;;24.12;90.37
9277;BME280;4676;42.678;23.244;2023-06-14T12:02:22;93798.34;;;24.09;91.03
9277;BME280;4676;42.678;23.244;2023-06-14T12:04:52;93814.78;;;24.18;87.36
9277;BME280;4676;42.678;23.244;2023-06-14T12:07:19;93796.41;;;24.29;98.13
9277;BME280;4676;42.678;23.244;2023-06-14T12:10:04;93796.47;;;24.37;100.00
9277;BME280;4676;42.678;23.244;2023-06-14T12:12:35;93796.94;;;24.58;99.21
9277;BME280;4676;42.678;23.244;2023-06-14T12:15:03;93799.13;;;24.45;88.74
9277;BME280;4676;42.678;23.244;2023-06-14T12:17:32;93793.84;;;24.55;100.00
9277;BME280;4676;42.678;23.244;2023-06-14T12:20:05;93787.72;;;24.56;96.26
9277;BME280;4676;42.678;23.244;2023-06-14T12:22:36;93785.38;;;24.45;100.00
9277;BME280;4676;42.678;23.244;2023-06-14T12:25:03;93791.47;;;24.61;90.63
9277;BME280;4676;42.678;23.244;2023-06-14T12:27:30;93789.94;;;24.76;94.40
9277;BME280;4676;42.678;23.244;2023-06-14T12:30:00;93787.00;;;25.05;97.64
9277;BME280;4676;42.678;23.244;2023-06-14T12:32:27;93787.78;;;25.31;89.73
9277;BME280;4676;42.678;23.244;2023-06-14T12:34:54;93773.84;;;25.32;87.73
9277;BME280;4676;42.678;23.244;2023-06-14T12:37:22;93783.00;;;25.53;92.62
9277;BME280;4676;42.678;23.244;2023-06-14T12:39:51;93778.66;;;25.61;87.71
9277;BME280;4676;42.678;23.244;2023-06-14T12:42:18;93767.81;;;25.74;88.77
9277;BME280;4676;42.678;23.244;2023-06-14T12:44:45;93755.00;;;25.97;89.93
9277;BME280;4676;42.678;23.244;2023-06-14T12:47:11;93763.47;;;26.23;93.17
9277;BME280;4676;42.678;23.244;2023-06-14T12:49:39;93761.19;;;26.36;87.49
9277;BME280;4676;42.678;23.244;2023-06-14T12:52:07;93762.97;;;26.52;80.86
9277;BME280;4676;42.678;23.244;2023-06-14T12:54:36;93760.19;;;26.53;78.61
9277;BME280;4676;42.678;23.244;2023-06-14T12:57:05;93751.94;;;26.42;83.34
9277;BME280;4676;42.678;23.244;2023-06-14T12:59:31;93759.88;;;26.08;73.74
9277;BME280;4676;42.678;23.244;2023-06-14T13:02:09;93760.97;;;25.73;78.87
9277;BME280;4676;42.678;23.244;2023-06-14T13:04:37;93759.28;;;25.48;81.25
9277;BME280;4676;42.678;23.244;2023-06-14T13:07:05;93763.41;;;25.16;87.07
9277;BME280;4676;42.678;23.244;2023-06-14T13:09:31;93755.06;;;24.97;94.76
9277;BME280;4676;42.678;23.244;2023-06-14T13:12:00;93770.78;;;24.69;99.20
9277;BME280;4676;42.678;23.244;2023-06-14T13:14:26;93761.56;;;24.49;99.35